Terminal Aerodrome Forecast
Issued by NWS

Home | Current Version | Previous Version | Text Only | Print | Product List | Glossary On
Versions: 1 2 3 4 5 6 7 8 9 10 11 12 13 14
000
FTUS43 KUNR 301700
TAFGCC
TAF
KGCC 301720Z 3018/3118 27010KT P6SM SKC
     FM310000 04008KT P6SM SCT010
     FM310900 18020G30KT 3SM BR OVC004=

USA.gov is the U.S. government's official web portal to all federal, state and local government web resources and services.